createdAt,value
2023-03-13T00:01:19.419Z,6.63
2023-03-13T00:03:46.359Z,6.43
2023-03-13T00:06:13.015Z,6.80
2023-03-13T00:08:39.984Z,8.05
2023-03-13T00:11:08.953Z,7.03
2023-03-13T00:13:35.732Z,5.68
2023-03-13T00:16:05.248Z,5.93
2023-03-13T00:18:31.932Z,6.05
2023-03-13T00:21:00.232Z,6.90
2023-03-13T00:23:27.047Z,6.57
2023-03-13T00:25:58.608Z,6.32
2023-03-13T00:28:25.209Z,6.40
2023-03-13T00:30:51.860Z,6.63
2023-03-13T00:33:18.527Z,6.72
2023-03-13T00:35:45.331Z,6.95
2023-03-13T00:38:12.095Z,7.00
2023-03-13T00:40:39.071Z,6.30
2023-03-13T00:43:05.796Z,6.00
2023-03-13T00:45:32.479Z,5.85
2023-03-13T00:47:59.147Z,6.63
2023-03-13T00:50:26.017Z,6.95
2023-03-13T00:52:52.748Z,6.60
2023-03-13T00:55:19.416Z,6.45
2023-03-13T00:57:46.103Z,6.57
2023-03-13T01:00:13.262Z,6.22
2023-03-13T01:02:43.605Z,6.00
2023-03-13T01:05:10.553Z,7.28
2023-03-13T01:07:37.141Z,6.50
2023-03-13T01:10:04.039Z,5.70
2023-03-13T01:12:30.658Z,6.63
2023-03-13T01:14:57.279Z,6.15
2023-03-13T01:17:23.947Z,4.95
2023-03-13T01:19:50.631Z,6.00
2023-03-13T01:22:17.249Z,5.00
2023-03-13T01:24:43.936Z,5.78
2023-03-13T01:27:10.750Z,5.60
2023-03-13T01:29:37.471Z,5.55
2023-03-13T01:32:04.350Z,6.18
2023-03-13T01:34:31.046Z,6.05
2023-03-13T01:36:57.604Z,5.18
2023-03-13T01:39:24.220Z,6.15
2023-03-13T01:41:50.884Z,5.82
2023-03-13T01:44:25.748Z,5.38
2023-03-13T01:46:52.576Z,6.20
2023-03-13T01:49:23.720Z,5.50
2023-03-13T01:51:55.561Z,4.78
2023-03-13T01:54:25.113Z,6.22
2023-03-13T01:56:54.158Z,4.78
2023-03-13T01:59:24.214Z,5.90
2023-03-13T02:01:51.032Z,5.10
2023-03-13T02:04:17.749Z,5.13
2023-03-13T02:06:44.855Z,1.75
2023-03-13T02:09:14.622Z,1.20
2023-03-13T02:11:47.403Z,1.38
2023-03-13T02:14:14.094Z,1.33
2023-03-13T02:16:40.775Z,1.58
2023-03-13T02:19:17.904Z,1.17
2023-03-13T02:21:54.132Z,1.15
2023-03-13T02:24:29.567Z,1.20
2023-03-13T02:26:56.170Z,1.27
2023-03-13T02:29:22.760Z,1.13
2023-03-13T02:31:49.467Z,1.33
2023-03-13T02:34:17.673Z,1.30
2023-03-13T02:36:44.312Z,1.13
2023-03-13T02:39:11.106Z,1.55
2023-03-13T02:41:37.753Z,1.33
2023-03-13T02:44:05.846Z,1.08
2023-03-13T02:46:43.117Z,1.20
2023-03-13T02:49:21.441Z,1.40
2023-03-13T02:51:48.126Z,1.30
2023-03-13T02:54:17.910Z,0.90
2023-03-13T02:56:46.470Z,1.20
2023-03-13T02:59:13.077Z,1.75
2023-03-13T03:01:39.692Z,1.33
2023-03-13T03:04:06.387Z,1.85
2023-03-13T03:06:33.221Z,1.35
2023-03-13T03:08:59.884Z,1.52
2023-03-13T03:11:26.521Z,1.27
2023-03-13T03:13:53.174Z,0.95
2023-03-13T03:16:20.605Z,3.13
2023-03-13T03:18:47.442Z,1.25
2023-03-13T03:21:14.098Z,1.40
2023-03-13T03:23:40.714Z,1.55
2023-03-13T03:26:07.736Z,1.15
2023-03-13T03:28:34.453Z,0.98
2023-03-13T03:31:05.497Z,1.20
2023-03-13T03:33:32.086Z,1.23
2023-03-13T03:36:01.405Z,1.13
2023-03-13T03:38:28.583Z,1.33
2023-03-13T03:40:55.242Z,1.25
2023-03-13T03:43:22.061Z,1.20
2023-03-13T03:45:48.763Z,1.02
2023-03-13T03:48:15.374Z,1.02
2023-03-13T03:50:42.061Z,0.73
2023-03-13T03:53:09.265Z,1.10
2023-03-13T03:55:36.022Z,1.00
2023-03-13T03:58:02.600Z,1.13
2023-03-13T04:00:29.866Z,0.77
2023-03-13T04:02:56.510Z,1.20
2023-03-13T04:05:23.634Z,1.05
2023-03-13T04:07:50.346Z,1.25
2023-03-13T04:10:17.050Z,1.50
2023-03-13T04:12:43.679Z,1.10
2023-03-13T04:15:10.858Z,0.80
2023-03-13T04:17:37.555Z,0.90
2023-03-13T04:20:06.372Z,0.80
2023-03-13T04:22:33.107Z,0.82
2023-03-13T04:25:00.298Z,1.08
2023-03-13T04:27:26.928Z,0.93
2023-03-13T04:29:53.551Z,0.90
2023-03-13T04:32:20.328Z,1.80
2023-03-13T04:34:46.980Z,1.00
2023-03-13T04:37:13.600Z,0.98
2023-03-13T04:39:40.354Z,1.00
2023-03-13T04:42:07.150Z,0.90
2023-03-13T04:44:33.826Z,0.85
2023-03-13T04:47:00.700Z,0.90
2023-03-13T04:49:27.329Z,0.80
2023-03-13T04:51:53.987Z,1.00
2023-03-13T04:54:20.629Z,1.10
2023-03-13T04:56:47.423Z,1.55
2023-03-13T04:59:14.267Z,1.33
2023-03-13T05:01:41.588Z,1.38
2023-03-13T05:04:08.291Z,1.50
2023-03-13T05:06:35.011Z,1.52
2023-03-13T05:09:02.012Z,1.40
2023-03-13T05:11:28.614Z,1.15
2023-03-13T05:13:55.210Z,1.42
2023-03-13T05:16:22.139Z,1.35
2023-03-13T05:18:48.952Z,1.27
2023-03-13T05:21:15.684Z,1.10
2023-03-13T05:23:42.351Z,1.08
2023-03-13T05:26:09.038Z,1.23
2023-03-13T05:28:35.642Z,1.08
2023-03-13T05:31:02.404Z,1.20
2023-03-13T05:33:29.025Z,0.90
2023-03-13T05:35:55.683Z,0.90
2023-03-13T05:38:22.349Z,0.80
2023-03-13T05:40:48.978Z,0.80
2023-03-13T05:43:15.646Z,0.85
2023-03-13T05:45:42.479Z,1.33
2023-03-13T05:48:09.136Z,1.00
2023-03-13T05:50:35.954Z,0.70
2023-03-13T05:53:02.715Z,1.20
2023-03-13T05:55:29.310Z,0.88
2023-03-13T05:57:56.008Z,1.50
2023-03-13T06:00:22.935Z,1.65
2023-03-13T06:02:49.605Z,1.30
2023-03-13T06:05:16.471Z,1.27
2023-03-13T06:07:43.053Z,1.58
2023-03-13T06:10:10.517Z,1.13
2023-03-13T06:12:37.126Z,2.25
2023-03-13T06:15:04.048Z,2.50
2023-03-13T06:17:30.743Z,1.30
2023-03-13T06:19:57.429Z,1.10
2023-03-13T06:22:24.092Z,1.45
2023-03-13T06:24:50.772Z,1.40
2023-03-13T06:27:17.570Z,1.48
2023-03-13T06:29:44.224Z,1.60
2023-03-13T06:32:10.975Z,1.20
2023-03-13T06:34:37.856Z,0.75
2023-03-13T06:37:04.482Z,1.23
2023-03-13T06:39:31.202Z,1.55
2023-03-13T06:41:57.811Z,1.25
2023-03-13T06:44:24.422Z,1.20
2023-03-13T06:46:51.163Z,1.33
2023-03-13T06:49:17.875Z,0.98
2023-03-13T06:51:44.554Z,1.63
2023-03-13T06:54:11.173Z,0.90
2023-03-13T06:56:37.844Z,1.15
2023-03-13T06:59:04.454Z,1.23
2023-03-13T07:01:31.158Z,0.88
2023-03-13T07:03:57.897Z,1.58
2023-03-13T07:06:25.128Z,1.40
2023-03-13T07:08:51.984Z,0.82
2023-03-13T07:11:18.898Z,1.67
2023-03-13T07:13:45.569Z,1.27
2023-03-13T07:16:13.539Z,1.63
2023-03-13T07:18:44.731Z,1.30
2023-03-13T07:21:11.855Z,1.52
2023-03-13T07:23:38.440Z,1.42
2023-03-13T07:26:08.045Z,1.00
2023-03-13T07:28:37.568Z,1.20
2023-03-13T07:31:14.702Z,1.40
2023-03-13T07:33:41.638Z,1.42
2023-03-13T07:36:09.101Z,1.08
2023-03-13T07:38:35.827Z,1.15
2023-03-13T07:41:02.662Z,1.50
2023-03-13T07:43:31.392Z,1.10
2023-03-13T07:46:00.083Z,1.52
2023-03-13T07:48:30.444Z,1.35
2023-03-13T07:50:57.331Z,1.38
2023-03-13T07:53:24.119Z,1.15
2023-03-13T07:55:54.542Z,1.08
2023-03-13T07:58:21.516Z,1.38
2023-03-13T08:00:48.305Z,1.48
2023-03-13T08:03:15.297Z,0.98
2023-03-13T08:05:42.156Z,1.35
2023-03-13T08:08:08.961Z,1.27
2023-03-13T08:10:35.687Z,1.15
2023-03-13T08:13:02.427Z,1.55
2023-03-13T08:15:29.229Z,1.50
2023-03-13T08:17:56.701Z,1.27
2023-03-13T08:20:23.363Z,0.93
2023-03-13T08:22:50.456Z,1.02
2023-03-13T08:25:17.311Z,1.63
2023-03-13T08:27:44.006Z,1.58
2023-03-13T08:30:11.307Z,1.30
2023-03-13T08:32:38.219Z,1.10
2023-03-13T08:35:05.487Z,1.73
2023-03-13T08:37:32.081Z,1.35
2023-03-13T08:39:58.776Z,1.30
2023-03-13T08:42:25.483Z,1.08
2023-03-13T08:44:52.038Z,1.40
2023-03-13T08:47:18.708Z,0.95
2023-03-13T08:49:45.397Z,1.35
2023-03-13T08:52:12.156Z,1.10
2023-03-13T08:54:38.794Z,1.50
2023-03-13T08:57:05.632Z,1.33
2023-03-13T08:59:32.399Z,1.30
2023-03-13T09:01:59.268Z,1.23
2023-03-13T09:04:25.897Z,1.38
2023-03-13T09:06:52.608Z,1.20
2023-03-13T09:09:19.322Z,2.30
2023-03-13T09:11:45.909Z,1.02
2023-03-13T09:14:12.600Z,2.95
2023-03-13T09:16:39.301Z,1.92
2023-03-13T09:19:06.521Z,1.55
2023-03-13T09:21:34.116Z,1.30
2023-03-13T09:24:01.315Z,1.27
2023-03-13T09:26:28.119Z,1.80
2023-03-13T09:28:55.031Z,1.20
2023-03-13T09:31:24.668Z,1.35
2023-03-13T09:33:51.661Z,1.20
2023-03-13T09:36:22.117Z,0.88
2023-03-13T09:38:51.234Z,3.67
2023-03-13T09:44:13.796Z,0.90
2023-03-13T09:46:45.995Z,1.42
2023-03-13T09:49:37.411Z,1.13
2023-03-13T09:52:16.013Z,1.63
2023-03-13T09:55:00.633Z,1.80
2023-03-13T10:00:22.879Z,0.80
2023-03-13T10:03:29.033Z,1.75
2023-03-13T10:05:57.318Z,1.20
2023-03-13T10:08:25.480Z,1.50
2023-03-13T10:11:29.963Z,0.75
2023-03-13T10:14:02.631Z,0.73
2023-03-13T10:18:59.769Z,1.02
2023-03-13T10:21:32.669Z,0.73
2023-03-13T10:24:21.459Z,0.98
2023-03-13T10:26:48.129Z,1.10
2023-03-13T10:29:32.140Z,1.63
2023-03-13T10:32:02.042Z,1.67
2023-03-13T10:34:30.784Z,1.10
2023-03-13T10:36:59.383Z,0.50
2023-03-13T10:39:27.694Z,1.00
2023-03-13T10:42:09.939Z,1.48
2023-03-13T10:44:36.657Z,2.30
2023-03-13T10:47:04.658Z,1.88
2023-03-13T10:49:31.834Z,1.58
2023-03-13T10:52:01.659Z,1.08
2023-03-13T10:57:29.046Z,0.80
2023-03-13T10:59:55.760Z,0.98
2023-03-13T11:02:38.500Z,1.38
2023-03-13T11:07:53.042Z,1.00
2023-03-13T11:10:22.664Z,1.00
2023-03-13T11:12:52.075Z,1.00
2023-03-13T11:15:30.920Z,0.55
2023-03-13T11:20:46.033Z,0.50
2023-03-13T11:23:34.451Z,0.80
2023-03-13T11:26:22.639Z,0.57
2023-03-13T11:28:58.951Z,0.22
2023-03-13T11:31:32.111Z,0.30
2023-03-13T11:34:10.636Z,1.00
2023-03-13T11:37:02.588Z,0.45
2023-03-13T11:39:46.451Z,0.50
2023-03-13T11:42:29.269Z,0.30
2023-03-13T11:48:18.396Z,0.98
2023-03-13T11:50:55.475Z,0.60
2023-03-13T11:53:33.381Z,0.70
2023-03-13T11:56:18.119Z,0.50
2023-03-13T11:59:24.637Z,1.65
2023-03-13T12:02:21.493Z,0.88
2023-03-13T12:04:52.670Z,0.45
2023-03-13T12:07:38.347Z,0.80
2023-03-13T12:10:12.446Z,0.57
2023-03-13T12:15:42.032Z,0.75
2023-03-13T12:18:15.762Z,0.80
2023-03-13T12:21:04.777Z,0.90
2023-03-13T12:23:42.211Z,0.75
2023-03-13T12:26:17.491Z,1.30
2023-03-13T12:28:52.179Z,0.70
2023-03-13T12:31:32.141Z,1.35
2023-03-13T12:34:20.347Z,0.90
2023-03-13T12:37:09.001Z,0.68
2023-03-13T12:39:47.691Z,1.00
2023-03-13T12:42:18.652Z,1.40
2023-03-13T12:44:45.494Z,0.98
2023-03-13T12:47:32.892Z,1.23
2023-03-13T12:50:22.223Z,0.60
2023-03-13T12:53:28.745Z,1.98
2023-03-13T12:56:18.434Z,1.20
2023-03-13T12:59:03.746Z,1.05
2023-03-13T13:01:36.473Z,1.42
2023-03-13T13:04:07.134Z,1.63
2023-03-13T13:06:59.313Z,0.93
2023-03-13T13:09:28.200Z,1.27
2023-03-13T13:12:10.444Z,1.15
2023-03-13T13:14:57.651Z,1.00
2023-03-13T13:17:46.141Z,1.05
2023-03-13T13:20:37.690Z,0.80
2023-03-13T13:23:24.599Z,1.40
2023-03-13T13:25:51.366Z,0.93
2023-03-13T13:28:27.298Z,0.75
2023-03-13T13:30:56.152Z,1.02
2023-03-13T13:36:21.841Z,0.98
2023-03-13T13:38:48.521Z,1.30
2023-03-13T13:44:20.665Z,0.57
2023-03-13T13:46:47.413Z,0.75
2023-03-13T13:49:15.584Z,1.08
2023-03-13T13:51:43.026Z,0.95
2023-03-13T13:56:59.727Z,1.20
2023-03-13T13:59:32.039Z,1.20
2023-03-13T14:02:19.961Z,1.00
2023-03-13T14:05:03.877Z,0.75
2023-03-13T14:07:41.524Z,1.10
2023-03-13T14:10:29.791Z,1.60
2023-03-13T14:12:57.967Z,1.30
2023-03-13T14:15:29.337Z,1.13
2023-03-13T14:18:24.883Z,2.38
2023-03-13T14:20:53.490Z,1.27
2023-03-13T14:23:43.952Z,0.95
2023-03-13T14:26:29.335Z,1.13
2023-03-13T14:28:57.884Z,0.68
2023-03-13T14:31:28.680Z,0.70
2023-03-13T14:33:57.856Z,0.60
2023-03-13T14:36:24.887Z,0.80
2023-03-13T14:38:57.112Z,1.27
2023-03-13T14:41:43.152Z,0.85
2023-03-13T14:44:23.829Z,0.80
2023-03-13T14:46:53.485Z,1.10
2023-03-13T14:49:24.275Z,0.73
2023-03-13T14:51:59.302Z,0.80
2023-03-13T14:54:32.295Z,1.15
2023-03-13T14:57:14.909Z,0.88
2023-03-13T15:02:16.308Z,0.70
2023-03-13T15:04:52.690Z,0.47
2023-03-13T15:07:19.280Z,1.17
2023-03-13T15:09:46.227Z,0.65
2023-03-13T15:12:15.002Z,1.40
2023-03-13T15:14:45.006Z,0.85
2023-03-13T15:17:27.474Z,1.00
2023-03-13T15:19:55.508Z,0.52
2023-03-13T15:22:27.413Z,1.73
2023-03-13T15:25:05.622Z,1.35
2023-03-13T15:27:33.095Z,2.13
2023-03-13T15:29:59.748Z,3.28
2023-03-13T15:32:28.189Z,3.03
2023-03-13T15:34:58.345Z,2.97
2023-03-13T15:37:26.084Z,0.90
2023-03-13T15:39:54.243Z,1.90
2023-03-13T15:42:21.468Z,2.42
2023-03-13T15:44:48.189Z,3.10
2023-03-13T15:47:17.729Z,1.98
2023-03-13T15:49:44.374Z,1.92
2023-03-13T15:52:18.656Z,2.30
2023-03-13T15:54:46.335Z,1.95
2023-03-13T15:57:15.501Z,1.80
2023-03-13T15:59:42.099Z,3.00
2023-03-13T16:02:15.112Z,3.08
2023-03-13T16:04:42.179Z,2.53
2023-03-13T16:07:11.847Z,2.92
2023-03-13T16:09:39.356Z,2.25
2023-03-13T16:12:06.288Z,2.53
2023-03-13T16:14:32.999Z,2.40
2023-03-13T16:16:59.648Z,1.00
2023-03-13T16:19:26.738Z,1.92
2023-03-13T16:21:53.342Z,2.30
2023-03-13T16:24:20.684Z,1.20
2023-03-13T16:26:47.302Z,1.60
2023-03-13T16:29:14.951Z,1.30
2023-03-13T16:31:41.667Z,1.55
2023-03-13T16:34:08.855Z,3.20
2023-03-13T16:36:35.781Z,2.72
2023-03-13T16:39:05.907Z,2.85
2023-03-13T16:41:32.836Z,2.15
2023-03-13T16:43:59.478Z,2.20
2023-03-13T16:46:36.494Z,1.98
2023-03-13T16:49:03.941Z,1.75
2023-03-13T16:51:30.653Z,2.17
2023-03-13T16:54:00.173Z,3.00
2023-03-13T16:56:43.040Z,2.90
2023-03-13T17:01:38.007Z,1.20
2023-03-13T17:04:04.786Z,1.60
2023-03-13T17:06:34.131Z,1.40
2023-03-13T17:09:02.177Z,0.82
2023-03-13T17:11:28.956Z,1.63
2023-03-13T17:13:55.681Z,1.08
2023-03-13T17:16:24.374Z,2.60
2023-03-13T17:18:52.370Z,1.75
2023-03-13T17:21:21.917Z,1.33
2023-03-13T17:23:48.524Z,1.90
2023-03-13T17:26:17.478Z,1.20
2023-03-13T17:28:44.899Z,1.70
2023-03-13T17:31:11.630Z,1.60
2023-03-13T17:33:38.440Z,3.42
2023-03-13T17:36:18.440Z,3.67
2023-03-13T17:38:45.282Z,3.65
2023-03-13T17:41:17.093Z,3.17
2023-03-13T17:43:43.839Z,3.33
2023-03-13T17:46:34.086Z,3.40
2023-03-13T17:49:00.909Z,3.35
2023-03-13T17:51:29.181Z,2.40
2023-03-13T17:53:56.137Z,3.70
2023-03-13T17:59:02.270Z,3.38
2023-03-13T18:01:30.834Z,3.28
2023-03-13T18:03:57.726Z,3.38
2023-03-13T18:06:29.558Z,3.58
2023-03-13T18:08:57.816Z,3.50
2023-03-13T18:11:25.260Z,3.20
2023-03-13T18:13:52.255Z,2.83
2023-03-13T18:16:25.262Z,2.92
2023-03-13T18:18:52.545Z,2.80
2023-03-13T18:21:19.760Z,2.70
2023-03-13T18:23:46.497Z,3.28
2023-03-13T18:26:20.505Z,3.28
2023-03-13T18:28:47.217Z,1.83
2023-03-13T18:31:13.879Z,2.00
2023-03-13T18:33:41.784Z,3.33
2023-03-13T18:36:15.342Z,3.60
2023-03-13T18:38:42.435Z,2.97
2023-03-13T18:41:10.115Z,3.10
2023-03-13T18:43:37.947Z,4.93
2023-03-13T18:46:04.981Z,3.78
2023-03-13T18:48:31.734Z,3.25
2023-03-13T18:50:58.416Z,3.47
2023-03-13T18:53:26.267Z,3.53
2023-03-13T18:55:53.993Z,3.90
2023-03-13T18:58:20.686Z,4.38
2023-03-13T19:00:47.473Z,3.83
2023-03-13T19:03:14.246Z,3.20
2023-03-13T19:05:40.904Z,3.00
2023-03-13T19:08:09.252Z,3.05
2023-03-13T19:10:38.388Z,2.95
2023-03-13T19:13:05.038Z,3.40
2023-03-13T19:15:31.797Z,2.97
2023-03-13T19:18:01.809Z,2.47
2023-03-13T19:20:29.819Z,3.35
2023-03-13T19:23:00.264Z,3.20
2023-03-13T19:25:26.973Z,2.00
2023-03-13T19:27:53.848Z,2.00
2023-03-13T19:30:22.394Z,2.08
2023-03-13T19:32:49.305Z,3.10
2023-03-13T19:35:18.728Z,2.50
2023-03-13T19:37:45.729Z,1.98
2023-03-13T19:40:17.370Z,2.53
2023-03-13T19:42:43.966Z,2.00
2023-03-13T19:45:11.267Z,3.40
2023-03-13T19:47:38.160Z,3.53
2023-03-13T19:50:05.296Z,4.25
2023-03-13T19:52:32.001Z,3.67
2023-03-13T19:55:05.109Z,3.75
2023-03-13T19:57:32.197Z,4.00
2023-03-13T19:59:58.865Z,2.20
2023-03-13T20:02:25.674Z,2.15
2023-03-13T20:04:52.472Z,2.47
2023-03-13T20:07:19.131Z,1.67
2023-03-13T20:09:45.789Z,4.75
2023-03-13T20:12:12.480Z,2.72
2023-03-13T20:14:39.393Z,2.30
2023-03-13T20:17:09.163Z,2.85
2023-03-13T20:19:36.143Z,2.03
2023-03-13T20:22:05.113Z,1.75
2023-03-13T20:24:33.440Z,2.17
2023-03-13T20:27:00.765Z,3.80
2023-03-13T20:29:27.454Z,3.13
2023-03-13T20:31:54.150Z,3.88
2023-03-13T20:34:21.169Z,3.47
2023-03-13T20:36:47.781Z,3.92
2023-03-13T20:39:14.385Z,4.13
2023-03-13T20:41:40.961Z,3.47
2023-03-13T20:44:07.549Z,4.03
2023-03-13T20:46:34.978Z,4.00
2023-03-13T20:49:01.632Z,3.53
2023-03-13T20:51:28.909Z,3.63
2023-03-13T20:53:55.643Z,3.88
2023-03-13T20:56:22.307Z,3.10
2023-03-13T20:58:48.955Z,2.35
2023-03-13T21:01:17.692Z,2.13
2023-03-13T21:03:45.141Z,2.40
2023-03-13T21:06:13.131Z,2.08
2023-03-13T21:08:39.814Z,2.00
2023-03-13T21:11:18.796Z,2.38
2023-03-13T21:13:45.496Z,2.65
2023-03-13T21:16:13.220Z,2.28
2023-03-13T21:18:39.944Z,2.92
2023-03-13T21:21:08.048Z,2.65
2023-03-13T21:23:34.792Z,3.10
2023-03-13T21:26:01.599Z,2.15
2023-03-13T21:28:28.594Z,2.13
2023-03-13T21:30:55.713Z,2.70
2023-03-13T21:33:22.748Z,2.80
2023-03-13T21:35:49.785Z,2.92
2023-03-13T21:38:16.933Z,2.38
2023-03-13T21:40:43.728Z,2.25
2023-03-13T21:43:10.400Z,3.00
2023-03-13T21:45:37.153Z,2.17
2023-03-13T21:48:03.902Z,2.13
2023-03-13T21:50:30.893Z,1.92
2023-03-13T21:52:57.552Z,1.90
2023-03-13T21:55:24.168Z,2.35
2023-03-13T21:57:50.938Z,2.20
2023-03-13T22:00:17.805Z,2.47
2023-03-13T22:02:44.476Z,2.03
2023-03-13T22:05:11.177Z,1.98
2023-03-13T22:07:37.816Z,1.88
2023-03-13T22:10:04.747Z,1.80
2023-03-13T22:12:31.383Z,1.52
2023-03-13T22:14:58.119Z,2.03
2023-03-13T22:17:24.863Z,2.20
2023-03-13T22:19:51.537Z,2.30
2023-03-13T22:22:19.927Z,1.65
2023-03-13T22:24:46.666Z,2.90
2023-03-13T22:27:13.496Z,2.17
2023-03-13T22:29:40.139Z,2.38
2023-03-13T22:32:06.790Z,1.80
2023-03-13T22:34:33.398Z,2.35
2023-03-13T22:37:00.044Z,1.40
2023-03-13T22:39:26.657Z,1.90
2023-03-13T22:41:53.261Z,1.33
2023-03-13T22:44:19.885Z,1.60
2023-03-13T22:46:46.625Z,1.63
2023-03-13T22:49:13.231Z,1.73
2023-03-13T22:51:39.852Z,1.40
2023-03-13T22:54:06.505Z,1.33
2023-03-13T22:56:33.140Z,1.73
2023-03-13T22:58:59.969Z,1.48
2023-03-13T23:01:26.740Z,0.95
2023-03-13T23:03:53.403Z,1.13
2023-03-13T23:06:22.628Z,1.52
2023-03-13T23:08:49.373Z,0.95
2023-03-13T23:11:16.079Z,0.77
2023-03-13T23:13:42.714Z,0.95
2023-03-13T23:16:10.448Z,1.00
2023-03-13T23:18:37.501Z,0.45
2023-03-13T23:21:06.594Z,0.80
2023-03-13T23:23:33.229Z,0.50
2023-03-13T23:26:00.898Z,0.40
2023-03-13T23:28:27.606Z,0.40
2023-03-13T23:30:54.235Z,0.63
2023-03-13T23:33:20.884Z,0.30
2023-03-13T23:35:47.500Z,0.38
2023-03-13T23:38:14.330Z,0.50
2023-03-13T23:40:41.112Z,0.52
2023-03-13T23:43:07.753Z,0.40
2023-03-13T23:45:36.376Z,0.20
2023-03-13T23:48:03.013Z,0.50
2023-03-13T23:50:29.787Z,0.20
2023-03-13T23:52:56.480Z,0.50
2023-03-13T23:55:23.092Z,0.20
2023-03-13T23:57:50.527Z,0.90
